sensor_id;sensor_type;location;lat;lon;timestamp;temperature;humidity
6462;DHT22;3264;42.862;25.098;2022-08-19T00:00:10;18.70;98.90
6462;DHT22;3264;42.862;25.098;2022-08-19T00:02:40;18.70;98.40
6462;DHT22;3264;42.862;25.098;2022-08-19T00:05:45;18.70;98.40
6462;DHT22;3264;42.862;25.098;2022-08-19T00:08:14;18.60;98.90
6462;DHT22;3264;42.862;25.098;2022-08-19T00:10:44;18.50;99.30
6462;DHT22;3264;42.862;25.098;2022-08-19T00:13:13;18.40;99.00
6462;DHT22;3264;42.862;25.098;2022-08-19T00:15:43;18.40;99.10
6462;DHT22;3264;42.862;25.098;2022-08-19T00:18:12;18.40;99.30
6462;DHT22;3264;42.862;25.098;2022-08-19T00:20:39;18.40;99.20
6462;DHT22;3264;42.862;25.098;2022-08-19T00:23:07;18.30;99.40
6462;DHT22;3264;42.862;25.098;2022-08-19T00:25:35;18.30;99.70
6462;DHT22;3264;42.862;25.098;2022-08-19T00:28:06;18.20;99.80
6462;DHT22;3264;42.862;25.098;2022-08-19T00:30:46;18.20;99.90
6462;DHT22;3264;42.862;25.098;2022-08-19T00:33:13;18.30;99.70
6462;DHT22;3264;42.862;25.098;2022-08-19T00:35:47;18.30;99.80
6462;DHT22;3264;42.862;25.098;2022-08-19T00:49:13;18.10;99.90
6462;DHT22;3264;42.862;25.098;2022-08-19T00:51:44;18.00;99.90
6462;DHT22;3264;42.862;25.098;2022-08-19T00:54:13;17.90;99.90
6462;DHT22;3264;42.862;25.098;2022-08-19T00:56:43;17.70;99.90
6462;DHT22;3264;42.862;25.098;2022-08-19T00:59:11;17.70;99.90
6462;DHT22;3264;42.862;25.098;2022-08-19T01:01:43;17.70;99.90
6462;DHT22;3264;42.862;25.098;2022-08-19T01:04:13;17.60;99.90
6462;DHT22;3264;42.862;25.098;2022-08-19T01:06:41;17.60;99.90
6462;DHT22;3264;42.862;25.098;2022-08-19T01:09:09;17.50;99.90
6462;DHT22;3264;42.862;25.098;2022-08-19T01:11:40;17.40;99.90
6462;DHT22;3264;42.862;25.098;2022-08-19T01:14:09;17.40;99.90
6462;DHT22;3264;42.862;25.098;2022-08-19T01:16:39;17.40;99.90
6462;DHT22;3264;42.862;25.098;2022-08-19T01:19:46;17.50;99.90
6462;DHT22;3264;42.862;25.098;2022-08-19T01:22:19;17.40;99.90
6462;DHT22;3264;42.862;25.098;2022-08-19T01:24:50;17.30;99.90
6462;DHT22;3264;42.862;25.098;2022-08-19T01:27:20;17.40;99.90
6462;DHT22;3264;42.862;25.098;2022-08-19T01:29:48;17.40;99.90
6462;DHT22;3264;42.862;25.098;2022-08-19T01:32:17;17.40;99.90
6462;DHT22;3264;42.862;25.098;2022-08-19T01:38:10;17.20;99.90
6462;DHT22;3264;42.862;25.098;2022-08-19T01:40:40;17.10;99.90
6462;DHT22;3264;42.862;25.098;2022-08-19T01:43:08;17.10;99.90
6462;DHT22;3264;42.862;25.098;2022-08-19T01:45:37;17.10;99.90
6462;DHT22;3264;42.862;25.098;2022-08-19T01:48:05;17.10;99.90
6462;DHT22;3264;42.862;25.098;2022-08-19T01:51:08;17.10;99.90
6462;DHT22;3264;42.862;25.098;2022-08-19T01:53:49;17.10;99.90
6462;DHT22;3264;42.862;25.098;2022-08-19T01:56:20;17.10;99.90
6462;DHT22;3264;42.862;25.098;2022-08-19T01:58:53;17.00;99.90
6462;DHT22;3264;42.862;25.098;2022-08-19T02:01:22;16.90;99.90
6462;DHT22;3264;42.862;25.098;2022-08-19T02:03:50;16.90;99.90
6462;DHT22;3264;42.862;25.098;2022-08-19T02:06:21;17.00;99.90
6462;DHT22;3264;42.862;25.098;2022-08-19T02:08:48;17.00;99.90
6462;DHT22;3264;42.862;25.098;2022-08-19T02:15:14;17.10;99.90
6462;DHT22;3264;42.862;25.098;2022-08-19T02:17:42;17.10;99.90
6462;DHT22;3264;42.862;25.098;2022-08-19T02:20:12;17.00;99.90
6462;DHT22;3264;42.862;25.098;2022-08-19T02:22:40;17.00;99.90
6462;DHT22;3264;42.862;25.098;2022-08-19T02:25:10;17.00;99.90
6462;DHT22;3264;42.862;25.098;2022-08-19T02:27:39;17.00;99.90
6462;DHT22;3264;42.862;25.098;2022-08-19T02:30:10;17.00;99.90
6462;DHT22;3264;42.862;25.098;2022-08-19T02:32:40;16.90;99.90
6462;DHT22;3264;42.862;25.098;2022-08-19T02:35:13;17.00;99.90
6462;DHT22;3264;42.862;25.098;2022-08-19T02:37:43;17.00;99.90
6462;DHT22;3264;42.862;25.098;2022-08-19T02:40:28;17.10;99.90
6462;DHT22;3264;42.862;25.098;2022-08-19T02:43:00;17.10;99.90
6462;DHT22;3264;42.862;25.098;2022-08-19T02:45:35;17.10;99.90
6462;DHT22;3264;42.862;25.098;2022-08-19T02:48:17;17.00;99.90
6462;DHT22;3264;42.862;25.098;2022-08-19T02:54:12;17.00;99.90
6462;DHT22;3264;42.862;25.098;2022-08-19T02:56:42;17.00;99.90
6462;DHT22;3264;42.862;25.098;2022-08-19T02:59:11;17.00;99.90
6462;DHT22;3264;42.862;25.098;2022-08-19T03:01:41;17.00;99.90
6462;DHT22;3264;42.862;25.098;2022-08-19T03:07:32;17.00;99.90
6462;DHT22;3264;42.862;25.098;2022-08-19T03:10:04;16.90;99.90
6462;DHT22;3264;42.862;25.098;2022-08-19T03:12:36;16.80;99.90
6462;DHT22;3264;42.862;25.098;2022-08-19T03:15:06;16.70;99.90
6462;DHT22;3264;42.862;25.098;2022-08-19T03:17:35;16.80;99.90
6462;DHT22;3264;42.862;25.098;2022-08-19T03:20:05;16.70;99.90
6462;DHT22;3264;42.862;25.098;2022-08-19T03:22:35;16.70;99.90
6462;DHT22;3264;42.862;25.098;2022-08-19T03:25:04;16.70;99.90
6462;DHT22;3264;42.862;25.098;2022-08-19T03:27:47;16.60;99.90
6462;DHT22;3264;42.862;25.098;2022-08-19T03:30:16;16.60;99.90
6462;DHT22;3264;42.862;25.098;2022-08-19T03:32:43;16.70;99.90
6462;DHT22;3264;42.862;25.098;2022-08-19T03:35:11;16.70;99.90
6462;DHT22;3264;42.862;25.098;2022-08-19T03:37:41;16.80;99.90
6462;DHT22;3264;42.862;25.098;2022-08-19T03:40:15;16.80;99.90
6462;DHT22;3264;42.862;25.098;2022-08-19T03:42:44;16.70;99.90
6462;DHT22;3264;42.862;25.098;2022-08-19T03:45:13;16.70;99.90
6462;DHT22;3264;42.862;25.098;2022-08-19T03:47:41;16.80;99.90
6462;DHT22;3264;42.862;25.098;2022-08-19T03:50:10;16.80;99.90
6462;DHT22;3264;42.862;25.098;2022-08-19T03:59:25;17.00;99.90
6462;DHT22;3264;42.862;25.098;2022-08-19T04:01:55;17.10;99.90
6462;DHT22;3264;42.862;25.098;2022-08-19T04:04:24;17.00;99.90
6462;DHT22;3264;42.862;25.098;2022-08-19T04:06:53;17.10;99.90
6462;DHT22;3264;42.862;25.098;2022-08-19T04:09:20;17.00;99.90
6462;DHT22;3264;42.862;25.098;2022-08-19T04:11:51;17.20;99.90
6462;DHT22;3264;42.862;25.098;2022-08-19T04:14:24;17.30;99.90
6462;DHT22;3264;42.862;25.098;2022-08-19T04:17:00;17.30;99.90
6462;DHT22;3264;42.862;25.098;2022-08-19T04:19:29;17.40;99.90
6462;DHT22;3264;42.862;25.098;2022-08-19T04:21:57;17.40;99.90
6462;DHT22;3264;42.862;25.098;2022-08-19T04:24:26;17.30;99.90
6462;DHT22;3264;42.862;25.098;2022-08-19T04:26:54;17.30;99.90
6462;DHT22;3264;42.862;25.098;2022-08-19T04:29:25;17.40;99.90
6462;DHT22;3264;42.862;25.098;2022-08-19T04:31:55;17.40;99.90
6462;DHT22;3264;42.862;25.098;2022-08-19T04:34:26;17.40;99.90
6462;DHT22;3264;42.862;25.098;2022-08-19T04:36:57;17.40;99.90
6462;DHT22;3264;42.862;25.098;2022-08-19T04:39:28;17.30;99.90
6462;DHT22;3264;42.862;25.098;2022-08-19T04:42:10;17.50;99.90
6462;DHT22;3264;42.862;25.098;2022-08-19T04:44:58;17.60;99.90
6462;DHT22;3264;42.862;25.098;2022-08-19T04:47:27;17.80;99.90
6462;DHT22;3264;42.862;25.098;2022-08-19T04:49:58;17.70;99.90
6462;DHT22;3264;42.862;25.098;2022-08-19T04:52:47;17.90;99.90
6462;DHT22;3264;42.862;25.098;2022-08-19T04:55:39;17.90;99.90
6462;DHT22;3264;42.862;25.098;2022-08-19T05:01:16;18.20;99.90
6462;DHT22;3264;42.862;25.098;2022-08-19T05:03:44;18.40;99.90
6462;DHT22;3264;42.862;25.098;2022-08-19T05:06:14;18.60;99.90
6462;DHT22;3264;42.862;25.098;2022-08-19T05:08:44;18.80;99.90
6462;DHT22;3264;42.862;25.098;2022-08-19T05:11:13;18.90;99.90
6462;DHT22;3264;42.862;25.098;2022-08-19T05:13:43;19.10;99.90
6462;DHT22;3264;42.862;25.098;2022-08-19T05:16:13;19.30;99.90
6462;DHT22;3264;42.862;25.098;2022-08-19T05:18:42;19.30;99.90
6462;DHT22;3264;42.862;25.098;2022-08-19T05:21:46;19.60;99.90
6462;DHT22;3264;42.862;25.098;2022-08-19T05:24:30;19.90;99.90
6462;DHT22;3264;42.862;25.098;2022-08-19T05:27:01;20.10;99.90
6462;DHT22;3264;42.862;25.098;2022-08-19T05:29:33;20.30;99.90
6462;DHT22;3264;42.862;25.098;2022-08-19T05:42:18;21.10;97.80
6462;DHT22;3264;42.862;25.098;2022-08-19T05:44:46;21.20;97.90
6462;DHT22;3264;42.862;25.098;2022-08-19T05:47:16;21.40;97.50
6462;DHT22;3264;42.862;25.098;2022-08-19T05:49:55;21.60;97.70
6462;DHT22;3264;42.862;25.098;2022-08-19T05:52:26;21.80;96.80
6462;DHT22;3264;42.862;25.098;2022-08-19T05:54:59;22.10;96.20
6462;DHT22;3264;42.862;25.098;2022-08-19T05:57:39;22.40;95.60
6462;DHT22;3264;42.862;25.098;2022-08-19T06:00:16;22.20;95.30
6462;DHT22;3264;42.862;25.098;2022-08-19T06:02:47;22.20;95.70
6462;DHT22;3264;42.862;25.098;2022-08-19T06:05:20;22.90;95.70
6462;DHT22;3264;42.862;25.098;2022-08-19T06:11:20;23.70;93.90
6462;DHT22;3264;42.862;25.098;2022-08-19T06:13:51;24.00;93.70
6462;DHT22;3264;42.862;25.098;2022-08-19T06:16:20;24.10;92.90
6462;DHT22;3264;42.862;25.098;2022-08-19T06:18:49;24.20;91.70
6462;DHT22;3264;42.862;25.098;2022-08-19T06:21:19;24.30;92.30
6462;DHT22;3264;42.862;25.098;2022-08-19T06:29:25;24.70;91.80
6462;DHT22;3264;42.862;25.098;2022-08-19T06:31:56;25.70;88.60
6462;DHT22;3264;42.862;25.098;2022-08-19T06:34:31;26.20;88.80
6462;DHT22;3264;42.862;25.098;2022-08-19T06:37:02;26.20;89.90
6462;DHT22;3264;42.862;25.098;2022-08-19T06:39:48;26.30;88.90
6462;DHT22;3264;42.862;25.098;2022-08-19T06:42:39;26.80;88.40
6462;DHT22;3264;42.862;25.098;2022-08-19T06:51:42;27.70;82.90
6462;DHT22;3264;42.862;25.098;2022-08-19T06:54:11;28.00;79.70
6462;DHT22;3264;42.862;25.098;2022-08-19T06:56:41;28.00;77.30
6462;DHT22;3264;42.862;25.098;2022-08-19T06:59:13;28.10;77.50
6462;DHT22;3264;42.862;25.098;2022-08-19T07:02:05;28.00;76.90
6462;DHT22;3264;42.862;25.098;2022-08-19T07:04:41;27.80;77.80
6462;DHT22;3264;42.862;25.098;2022-08-19T07:07:13;28.50;78.10
6462;DHT22;3264;42.862;25.098;2022-08-19T07:09:42;29.00;75.80
6462;DHT22;3264;42.862;25.098;2022-08-19T07:12:15;28.90;71.80
6462;DHT22;3264;42.862;25.098;2022-08-19T07:14:46;29.10;70.80
6462;DHT22;3264;42.862;25.098;2022-08-19T07:17:16;29.10;73.20
6462;DHT22;3264;42.862;25.098;2022-08-19T07:19:46;29.40;69.60
6462;DHT22;3264;42.862;25.098;2022-08-19T07:22:20;29.60;70.00
6462;DHT22;3264;42.862;25.098;2022-08-19T07:25:01;30.00;70.60
6462;DHT22;3264;42.862;25.098;2022-08-19T07:27:30;30.30;70.20
6462;DHT22;3264;42.862;25.098;2022-08-19T07:29:58;30.70;69.20
6462;DHT22;3264;42.862;25.098;2022-08-19T07:32:44;30.70;65.60
6462;DHT22;3264;42.862;25.098;2022-08-19T07:35:15;30.80;64.90
6462;DHT22;3264;42.862;25.098;2022-08-19T07:41:01;30.90;64.40
6462;DHT22;3264;42.862;25.098;2022-08-19T07:43:34;31.10;62.00
6462;DHT22;3264;42.862;25.098;2022-08-19T07:46:02;31.10;60.50
6462;DHT22;3264;42.862;25.098;2022-08-19T07:48:31;31.20;60.30
6462;DHT22;3264;42.862;25.098;2022-08-19T07:51:00;31.30;61.20
6462;DHT22;3264;42.862;25.098;2022-08-19T07:53:30;31.50;59.30
6462;DHT22;3264;42.862;25.098;2022-08-19T07:56:00;31.70;60.40
6462;DHT22;3264;42.862;25.098;2022-08-19T07:58:31;31.80;59.00
6462;DHT22;3264;42.862;25.098;2022-08-19T08:01:52;31.70;58.30
6462;DHT22;3264;42.862;25.098;2022-08-19T08:04:43;31.20;57.80
6462;DHT22;3264;42.862;25.098;2022-08-19T08:07:28;31.10;59.70
6462;DHT22;3264;42.862;25.098;2022-08-19T08:10:14;32.00;59.40
6462;DHT22;3264;42.862;25.098;2022-08-19T08:13:25;31.90;58.30
6462;DHT22;3264;42.862;25.098;2022-08-19T08:15:53;30.80;58.10
6462;DHT22;3264;42.862;25.098;2022-08-19T08:18:30;31.60;58.00
6462;DHT22;3264;42.862;25.098;2022-08-19T08:21:07;32.20;57.30
6462;DHT22;3264;42.862;25.098;2022-08-19T08:24:02;31.50;56.70
6462;DHT22;3264;42.862;25.098;2022-08-19T08:26:55;31.60;55.60
6462;DHT22;3264;42.862;25.098;2022-08-19T08:29:54;32.50;55.60
6462;DHT22;3264;42.862;25.098;2022-08-19T08:32:28;32.30;53.70
6462;DHT22;3264;42.862;25.098;2022-08-19T08:34:56;32.50;54.20
6462;DHT22;3264;42.862;25.098;2022-08-19T08:37:26;33.10;54.40
6462;DHT22;3264;42.862;25.098;2022-08-19T08:39:54;32.70;53.00
6462;DHT22;3264;42.862;25.098;2022-08-19T08:42:26;32.90;54.20
6462;DHT22;3264;42.862;25.098;2022-08-19T08:44:59;32.60;53.40
6462;DHT22;3264;42.862;25.098;2022-08-19T08:47:32;33.00;52.70
6462;DHT22;3264;42.862;25.098;2022-08-19T08:50:05;33.10;52.30
6462;DHT22;3264;42.862;25.098;2022-08-19T08:52:37;33.00;51.50
6462;DHT22;3264;42.862;25.098;2022-08-19T08:55:11;32.90;53.60
6462;DHT22;3264;42.862;25.098;2022-08-19T08:57:48;32.40;51.20
6462;DHT22;3264;42.862;25.098;2022-08-19T09:00:25;32.40;52.20
6462;DHT22;3264;42.862;25.098;2022-08-19T09:02:54;32.70;52.70
6462;DHT22;3264;42.862;25.098;2022-08-19T09:05:30;33.20;51.80
6462;DHT22;3264;42.862;25.098;2022-08-19T09:08:03;33.60;51.00
6462;DHT22;3264;42.862;25.098;2022-08-19T09:10:37;33.40;50.70
6462;DHT22;3264;42.862;25.098;2022-08-19T09:13:14;33.20;50.60
6462;DHT22;3264;42.862;25.098;2022-08-19T09:16:02;33.40;50.50
6462;DHT22;3264;42.862;25.098;2022-08-19T09:18:42;33.50;52.50
6462;DHT22;3264;42.862;25.098;2022-08-19T09:21:10;34.00;50.60
6462;DHT22;3264;42.862;25.098;2022-08-19T09:23:39;34.00;52.10
6462;DHT22;3264;42.862;25.098;2022-08-19T09:26:11;33.90;49.70
6462;DHT22;3264;42.862;25.098;2022-08-19T09:28:41;33.50;50.70
6462;DHT22;3264;42.862;25.098;2022-08-19T09:31:12;33.60;50.20
6462;DHT22;3264;42.862;25.098;2022-08-19T09:33:44;33.70;50.30
6462;DHT22;3264;42.862;25.098;2022-08-19T09:36:16;34.10;51.20
6462;DHT22;3264;42.862;25.098;2022-08-19T09:38:45;34.10;49.60
6462;DHT22;3264;42.862;25.098;2022-08-19T09:41:14;34.20;50.30
6462;DHT22;3264;42.862;25.098;2022-08-19T09:43:45;34.40;50.00
6462;DHT22;3264;42.862;25.098;2022-08-19T09:46:16;34.20;48.70
6462;DHT22;3264;42.862;25.098;2022-08-19T09:48:46;34.50;48.60
6462;DHT22;3264;42.862;25.098;2022-08-19T09:51:16;35.00;49.40
6462;DHT22;3264;42.862;25.098;2022-08-19T09:53:50;34.90;48.80
6462;DHT22;3264;42.862;25.098;2022-08-19T09:56:20;34.80;48.10
6462;DHT22;3264;42.862;25.098;2022-08-19T09:58:57;34.10;48.00
6462;DHT22;3264;42.862;25.098;2022-08-19T10:01:30;34.40;48.90
6462;DHT22;3264;42.862;25.098;2022-08-19T10:04:06;34.70;49.50
6462;DHT22;3264;42.862;25.098;2022-08-19T10:07:10;34.30;48.00
6462;DHT22;3264;42.862;25.098;2022-08-19T10:09:40;34.50;47.60
6462;DHT22;3264;42.862;25.098;2022-08-19T10:12:08;34.20;49.10
6462;DHT22;3264;42.862;25.098;2022-08-19T10:14:36;34.40;49.80
6462;DHT22;3264;42.862;25.098;2022-08-19T10:17:11;34.00;48.00
6462;DHT22;3264;42.862;25.098;2022-08-19T10:19:40;33.80;49.60
6462;DHT22;3264;42.862;25.098;2022-08-19T10:22:09;34.20;48.30
6462;DHT22;3264;42.862;25.098;2022-08-19T10:24:41;34.40;49.30
6462;DHT22;3264;42.862;25.098;2022-08-19T10:27:10;34.50;47.40
6462;DHT22;3264;42.862;25.098;2022-08-19T10:29:53;34.50;47.90
6462;DHT22;3264;42.862;25.098;2022-08-19T10:32:40;34.80;48.20
6462;DHT22;3264;42.862;25.098;2022-08-19T10:35:14;34.90;46.90
6462;DHT22;3264;42.862;25.098;2022-08-19T10:37:43;34.40;47.90
6462;DHT22;3264;42.862;25.098;2022-08-19T10:40:13;35.20;48.00
6462;DHT22;3264;42.862;25.098;2022-08-19T10:42:49;35.10;46.90
6462;DHT22;3264;42.862;25.098;2022-08-19T10:45:50;35.00;46.20
6462;DHT22;3264;42.862;25.098;2022-08-19T10:48:28;35.10;47.80
6462;DHT22;3264;42.862;25.098;2022-08-19T10:51:02;35.90;46.70
6462;DHT22;3264;42.862;25.098;2022-08-19T10:53:49;35.10;45.40
6462;DHT22;3264;42.862;25.098;2022-08-19T13:24:14;35.10;45.10
6462;DHT22;3264;42.862;25.098;2022-08-19T13:26:43;34.70;45.00
6462;DHT22;3264;42.862;25.098;2022-08-19T13:29:28;34.80;45.60
6462;DHT22;3264;42.862;25.098;2022-08-19T13:32:18;34.70;45.70
6462;DHT22;3264;42.862;25.098;2022-08-19T13:35:05;34.40;46.40
6462;DHT22;3264;42.862;25.098;2022-08-19T13:37:38;34.90;45.80
6462;DHT22;3264;42.862;25.098;2022-08-19T13:40:20;34.70;46.30
6462;DHT22;3264;42.862;25.098;2022-08-19T13:43:04;34.10;45.40
6462;DHT22;3264;42.862;25.098;2022-08-19T13:45:36;34.40;46.20
6462;DHT22;3264;42.862;25.098;2022-08-19T13:48:09;34.80;45.60
6462;DHT22;3264;42.862;25.098;2022-08-19T13:50:44;34.60;45.30
6462;DHT22;3264;42.862;25.098;2022-08-19T13:53:15;34.60;45.70
6462;DHT22;3264;42.862;25.098;2022-08-19T13:55:50;34.50;46.50
6462;DHT22;3264;42.862;25.098;2022-08-19T13:58:23;34.40;47.50
6462;DHT22;3264;42.862;25.098;2022-08-19T14:04:11;34.60;46.60
6462;DHT22;3264;42.862;25.098;2022-08-19T14:06:39;33.70;45.70
6462;DHT22;3264;42.862;25.098;2022-08-19T14:09:09;33.80;46.40
6462;DHT22;3264;42.862;25.098;2022-08-19T14:15:01;34.00;46.80
6462;DHT22;3264;42.862;25.098;2022-08-19T14:18:03;33.90;47.70
6462;DHT22;3264;42.862;25.098;2022-08-19T14:20:34;33.60;46.60
6462;DHT22;3264;42.862;25.098;2022-08-19T14:26:18;34.10;47.30
6462;DHT22;3264;42.862;25.098;2022-08-19T14:28:47;34.10;46.30
6462;DHT22;3264;42.862;25.098;2022-08-19T14:31:18;34.10;48.40
6462;DHT22;3264;42.862;25.098;2022-08-19T14:33:47;33.90;47.60
6462;DHT22;3264;42.862;25.098;2022-08-19T14:39:37;33.70;46.80
6462;DHT22;3264;42.862;25.098;2022-08-19T14:42:07;33.60;47.20
6462;DHT22;3264;42.862;25.098;2022-08-19T15:18:20;33.00;47.20
6462;DHT22;3264;42.862;25.098;2022-08-19T15:20:48;33.10;47.80
6462;DHT22;3264;42.862;25.098;2022-08-19T15:26:35;32.90;48.60
6462;DHT22;3264;42.862;25.098;2022-08-19T15:32:35;32.60;48.10
6462;DHT22;3264;42.862;25.098;2022-08-19T15:35:07;32.70;48.50
6462;DHT22;3264;42.862;25.098;2022-08-19T15:37:36;32.60;48.70
6462;DHT22;3264;42.862;25.098;2022-08-19T15:40:07;32.60;48.20
6462;DHT22;3264;42.862;25.098;2022-08-19T15:42:37;32.50;49.30
6462;DHT22;3264;42.862;25.098;2022-08-19T15:45:10;32.50;48.00
6462;DHT22;3264;42.862;25.098;2022-08-19T15:47:40;32.50;48.90
6462;DHT22;3264;42.862;25.098;2022-08-19T15:50:14;32.30;48.60
6462;DHT22;3264;42.862;25.098;2022-08-19T15:52:48;32.40;48.90
6462;DHT22;3264;42.862;25.098;2022-08-19T15:55:17;32.00;49.50
6462;DHT22;3264;42.862;25.098;2022-08-19T15:57:45;31.90;50.60
6462;DHT22;3264;42.862;25.098;2022-08-19T16:01:02;31.90;50.70
6462;DHT22;3264;42.862;25.098;2022-08-19T16:03:48;31.80;49.60
6462;DHT22;3264;42.862;25.098;2022-08-19T16:06:38;31.70;51.70
6462;DHT22;3264;42.862;25.098;2022-08-19T16:09:07;31.50;52.10
6462;DHT22;3264;42.862;25.098;2022-08-19T16:11:37;31.30;53.20
6462;DHT22;3264;42.862;25.098;2022-08-19T16:17:15;30.90;51.00
6462;DHT22;3264;42.862;25.098;2022-08-19T16:19:45;30.80;52.60
6462;DHT22;3264;42.862;25.098;2022-08-19T16:22:41;30.60;53.90
6462;DHT22;3264;42.862;25.098;2022-08-19T16:25:10;30.50;54.80
6462;DHT22;3264;42.862;25.098;2022-08-19T16:27:40;30.60;54.20
6462;DHT22;3264;42.862;25.098;2022-08-19T16:30:09;30.50;54.80
6462;DHT22;3264;42.862;25.098;2022-08-19T16:32:42;30.20;54.50
6462;DHT22;3264;42.862;25.098;2022-08-19T16:35:11;30.20;55.10
6462;DHT22;3264;42.862;25.098;2022-08-19T16:37:42;30.00;55.10
6462;DHT22;3264;42.862;25.098;2022-08-19T16:40:10;30.00;55.30
6462;DHT22;3264;42.862;25.098;2022-08-19T16:42:47;29.80;55.30
6462;DHT22;3264;42.862;25.098;2022-08-19T16:55:19;29.10;57.80
6462;DHT22;3264;42.862;25.098;2022-08-19T16:57:57;28.80;58.80
6462;DHT22;3264;42.862;25.098;2022-08-19T17:00:29;28.50;59.40
6462;DHT22;3264;42.862;25.098;2022-08-19T17:03:13;28.30;60.20
6462;DHT22;3264;42.862;25.098;2022-08-19T17:06:20;28.10;60.90
6462;DHT22;3264;42.862;25.098;2022-08-19T17:09:00;27.80;62.10
6462;DHT22;3264;42.862;25.098;2022-08-19T17:11:43;27.50;63.50
6462;DHT22;3264;42.862;25.098;2022-08-19T17:14:14;27.30;63.60
6462;DHT22;3264;42.862;25.098;2022-08-19T17:16:45;27.20;64.50
6462;DHT22;3264;42.862;25.098;2022-08-19T17:19:13;27.10;64.70
6462;DHT22;3264;42.862;25.098;2022-08-19T17:21:42;26.90;65.20
6462;DHT22;3264;42.862;25.098;2022-08-19T17:24:46;26.70;66.40
6462;DHT22;3264;42.862;25.098;2022-08-19T17:27:16;26.60;66.50
6462;DHT22;3264;42.862;25.098;2022-08-19T17:29:46;26.50;67.00
6462;DHT22;3264;42.862;25.098;2022-08-19T17:32:15;26.30;67.60
6462;DHT22;3264;42.862;25.098;2022-08-19T17:34:44;26.20;67.90
6462;DHT22;3264;42.862;25.098;2022-08-19T17:37:13;26.00;68.50
6462;DHT22;3264;42.862;25.098;2022-08-19T17:39:42;25.90;68.60
6462;DHT22;3264;42.862;25.098;2022-08-19T17:42:12;25.80;69.40
6462;DHT22;3264;42.862;25.098;2022-08-19T17:44:43;25.70;69.60
6462;DHT22;3264;42.862;25.098;2022-08-19T17:47:12;25.60;69.90
6462;DHT22;3264;42.862;25.098;2022-08-19T17:49:42;25.50;70.20
6462;DHT22;3264;42.862;25.098;2022-08-19T17:52:10;25.30;70.90
6462;DHT22;3264;42.862;25.098;2022-08-19T17:54:42;25.20;71.60
6462;DHT22;3264;42.862;25.098;2022-08-19T17:57:11;25.20;71.50
6462;DHT22;3264;42.862;25.098;2022-08-19T17:59:44;25.20;71.70
6462;DHT22;3264;42.862;25.098;2022-08-19T18:02:17;25.20;71.70
6462;DHT22;3264;42.862;25.098;2022-08-19T18:04:53;24.90;72.60
6462;DHT22;3264;42.862;25.098;2022-08-19T18:07:24;24.90;72.90
6462;DHT22;3264;42.862;25.098;2022-08-19T18:09:56;24.90;73.80
6462;DHT22;3264;42.862;25.098;2022-08-19T18:12:25;24.80;73.60
6462;DHT22;3264;42.862;25.098;2022-08-19T18:15:00;24.90;73.40
6462;DHT22;3264;42.862;25.098;2022-08-19T18:17:31;25.00;73.20
6462;DHT22;3264;42.862;25.098;2022-08-19T18:20:05;24.80;74.40
6462;DHT22;3264;42.862;25.098;2022-08-19T18:23:00;24.60;75.20
6462;DHT22;3264;42.862;25.098;2022-08-19T18:25:29;24.30;76.10
6462;DHT22;3264;42.862;25.098;2022-08-19T18:28:00;24.20;76.60
6462;DHT22;3264;42.862;25.098;2022-08-19T18:30:45;24.10;77.20
6462;DHT22;3264;42.862;25.098;2022-08-19T18:33:14;23.90;78.50
6462;DHT22;3264;42.862;25.098;2022-08-19T18:35:46;23.90;79.60
6462;DHT22;3264;42.862;25.098;2022-08-19T18:41:39;23.70;80.70
6462;DHT22;3264;42.862;25.098;2022-08-19T18:44:25;23.70;81.30
6462;DHT22;3264;42.862;25.098;2022-08-19T18:47:13;23.60;81.90
6462;DHT22;3264;42.862;25.098;2022-08-19T18:49:59;23.40;83.00
6462;DHT22;3264;42.862;25.098;2022-08-19T18:52:35;23.40;83.70
6462;DHT22;3264;42.862;25.098;2022-08-19T18:55:06;23.30;84.50
6462;DHT22;3264;42.862;25.098;2022-08-19T18:57:36;23.30;85.20
6462;DHT22;3264;42.862;25.098;2022-08-19T19:00:08;23.20;85.70
6462;DHT22;3264;42.862;25.098;2022-08-19T19:02:40;23.10;86.60
6462;DHT22;3264;42.862;25.098;2022-08-19T19:05:12;23.10;87.00
6462;DHT22;3264;42.862;25.098;2022-08-19T19:11:19;23.10;87.80
6462;DHT22;3264;42.862;25.098;2022-08-19T19:17:14;23.00;88.80
6462;DHT22;3264;42.862;25.098;2022-08-19T19:19:46;23.00;89.50
6462;DHT22;3264;42.862;25.098;2022-08-19T19:22:17;22.90;89.90
6462;DHT22;3264;42.862;25.098;2022-08-19T19:24:48;22.80;90.40
6462;DHT22;3264;42.862;25.098;2022-08-19T19:27:21;22.70;90.90
6462;DHT22;3264;42.862;25.098;2022-08-19T19:40:01;22.40;91.90
6462;DHT22;3264;42.862;25.098;2022-08-19T19:42:30;22.30;92.30
6462;DHT22;3264;42.862;25.098;2022-08-19T19:45:01;22.20;92.70
6462;DHT22;3264;42.862;25.098;2022-08-19T19:47:46;22.30;93.00
6462;DHT22;3264;42.862;25.098;2022-08-19T19:50:17;22.20;93.20
6462;DHT22;3264;42.862;25.098;2022-08-19T19:56:13;22.00;94.30
6462;DHT22;3264;42.862;25.098;2022-08-19T19:58:42;21.80;94.80
6462;DHT22;3264;42.862;25.098;2022-08-19T20:01:12;21.70;95.40
6462;DHT22;3264;42.862;25.098;2022-08-19T20:03:43;21.60;95.90
6462;DHT22;3264;42.862;25.098;2022-08-19T20:06:14;21.60;96.00
6462;DHT22;3264;42.862;25.098;2022-08-19T20:08:45;21.40;96.40
6462;DHT22;3264;42.862;25.098;2022-08-19T20:11:35;21.40;96.40
6462;DHT22;3264;42.862;25.098;2022-08-19T20:14:06;21.40;96.70
6462;DHT22;3264;42.862;25.098;2022-08-19T20:16:38;21.30;97.00
6462;DHT22;3264;42.862;25.098;2022-08-19T20:19:10;21.20;97.40
6462;DHT22;3264;42.862;25.098;2022-08-19T20:21:40;21.10;97.60
6462;DHT22;3264;42.862;25.098;2022-08-19T20:24:13;21.10;98.00
6462;DHT22;3264;42.862;25.098;2022-08-19T20:26:44;21.00;98.30
6462;DHT22;3264;42.862;25.098;2022-08-19T20:35:57;20.80;98.50
6462;DHT22;3264;42.862;25.098;2022-08-19T20:38:25;20.80;98.60
6462;DHT22;3264;42.862;25.098;2022-08-19T20:40:53;20.80;98.70
6462;DHT22;3264;42.862;25.098;2022-08-19T20:49:13;20.90;98.50
6462;DHT22;3264;42.862;25.098;2022-08-19T20:51:42;20.80;99.10
6462;DHT22;3264;42.862;25.098;2022-08-19T20:54:12;20.80;99.20
6462;DHT22;3264;42.862;25.098;2022-08-19T20:56:41;20.80;99.30
6462;DHT22;3264;42.862;25.098;2022-08-19T20:59:10;20.70;99.30
6462;DHT22;3264;42.862;25.098;2022-08-19T21:01:38;20.70;99.30
6462;DHT22;3264;42.862;25.098;2022-08-19T21:04:07;20.70;99.50
6462;DHT22;3264;42.862;25.098;2022-08-19T21:06:38;20.70;99.50
6462;DHT22;3264;42.862;25.098;2022-08-19T21:09:17;20.70;99.60
6462;DHT22;3264;42.862;25.098;2022-08-19T21:11:49;20.70;99.70
6462;DHT22;3264;42.862;25.098;2022-08-19T21:14:22;20.70;99.60
6462;DHT22;3264;42.862;25.098;2022-08-19T21:16:50;20.50;99.90
6462;DHT22;3264;42.862;25.098;2022-08-19T21:19:20;20.40;99.90
6462;DHT22;3264;42.862;25.098;2022-08-19T21:21:55;20.40;99.90
6462;DHT22;3264;42.862;25.098;2022-08-19T21:24:28;20.40;99.90
6462;DHT22;3264;42.862;25.098;2022-08-19T21:28:00;20.40;99.90
6462;DHT22;3264;42.862;25.098;2022-08-19T21:30:46;20.20;99.90
6462;DHT22;3264;42.862;25.098;2022-08-19T21:36:39;20.20;99.90
6462;DHT22;3264;42.862;25.098;2022-08-19T21:49:14;20.20;99.90
6462;DHT22;3264;42.862;25.098;2022-08-19T21:51:43;20.10;99.90
6462;DHT22;3264;42.862;25.098;2022-08-19T21:54:11;20.00;99.90